createdAt,value
2022-10-13T00:02:42.931Z,7.38
2022-10-13T00:07:44.809Z,7.27
2022-10-13T00:12:46.809Z,7.24
2022-10-13T00:17:50.088Z,7.10
2022-10-13T00:22:52.103Z,7.08
2022-10-13T00:27:54.229Z,7.04
2022-10-13T00:32:58.293Z,6.90
2022-10-13T00:38:00.702Z,6.97
2022-10-13T00:43:21.863Z,6.94
2022-10-13T00:48:30.341Z,6.85
2022-10-13T00:53:35.734Z,6.81
2022-10-13T00:58:39.129Z,6.81
2022-10-13T01:03:41.202Z,6.78
2022-10-13T01:08:49.616Z,6.72
2022-10-13T01:14:32.042Z,6.76
2022-10-13T01:20:09.025Z,6.75
2022-10-13T01:25:56.282Z,6.74
2022-10-13T01:31:13.784Z,6.64
2022-10-13T01:36:47.957Z,6.63
2022-10-13T01:41:54.149Z,6.50
2022-10-13T01:46:57.239Z,6.45
2022-10-13T01:52:03.400Z,6.45
2022-10-13T01:57:25.337Z,6.38
2022-10-13T02:02:34.341Z,6.37
2022-10-13T02:07:44.805Z,6.34
2022-10-13T02:12:51.442Z,6.33
2022-10-13T02:17:53.747Z,6.28
2022-10-13T02:23:01.330Z,6.24
2022-10-13T02:28:03.964Z,6.25
2022-10-13T02:33:11.270Z,6.11
2022-10-13T02:38:13.543Z,6.11
2022-10-13T02:43:16.560Z,5.99
2022-10-13T02:48:18.429Z,5.87
2022-10-13T02:53:20.603Z,5.89
2022-10-13T02:58:22.556Z,5.84
2022-10-13T03:03:27.341Z,5.82
2022-10-13T03:08:29.448Z,5.82
2022-10-13T03:13:31.601Z,5.72
2022-10-13T03:18:41.261Z,5.82
2022-10-13T03:23:43.141Z,5.82
2022-10-13T03:28:52.211Z,5.82
2022-10-13T03:33:54.641Z,5.85
2022-10-13T03:38:56.524Z,5.84
2022-10-13T03:43:58.446Z,5.84
2022-10-13T03:49:00.368Z,5.78
2022-10-13T03:54:04.757Z,5.77
2022-10-13T03:59:06.734Z,5.79
2022-10-13T04:04:11.056Z,5.76
2022-10-13T04:09:16.805Z,5.71
2022-10-13T04:14:19.685Z,5.71
2022-10-13T04:19:21.534Z,5.70
2022-10-13T04:24:23.596Z,5.56
2022-10-13T04:29:25.549Z,5.65
2022-10-13T04:34:28.959Z,5.64
2022-10-13T04:39:31.480Z,5.66
2022-10-13T04:44:33.394Z,5.69
2022-10-13T04:49:35.326Z,5.69
2022-10-13T04:54:37.360Z,5.64
2022-10-13T04:59:39.229Z,5.62
2022-10-13T05:04:41.372Z,5.67
2022-10-13T05:09:43.210Z,5.68
2022-10-13T05:14:48.025Z,5.75
2022-10-13T05:19:49.993Z,5.75
2022-10-13T05:24:51.964Z,5.82
2022-10-13T05:29:53.862Z,5.96
2022-10-13T05:34:55.873Z,6.02
2022-10-13T05:39:57.809Z,6.11
2022-10-13T05:44:59.668Z,6.23
2022-10-13T05:50:01.554Z,6.28
2022-10-13T05:55:06.037Z,6.25
2022-10-13T06:00:10.707Z,6.39
2022-10-13T06:05:18.870Z,6.48
2022-10-13T06:10:21.072Z,6.73
2022-10-13T06:15:27.782Z,6.99
2022-10-13T06:20:31.345Z,7.19
2022-10-13T06:25:33.489Z,7.35
2022-10-13T06:30:35.408Z,7.60
2022-10-13T06:35:38.086Z,7.70
2022-10-13T06:40:39.919Z,7.82
2022-10-13T06:45:42.021Z,7.75
2022-10-13T06:50:43.862Z,8.07
2022-10-13T06:55:50.184Z,8.22
2022-10-13T07:00:55.146Z,8.27
2022-10-13T07:06:08.148Z,8.52
2022-10-13T07:11:17.345Z,8.64
2022-10-13T07:16:23.641Z,8.88
2022-10-13T07:21:25.609Z,8.92
2022-10-13T07:26:27.473Z,9.07
2022-10-13T07:31:29.457Z,9.25
2022-10-13T07:36:35.493Z,9.41
2022-10-13T07:41:37.935Z,9.54
2022-10-13T07:46:46.241Z,9.69
2022-10-13T07:51:54.144Z,9.84
2022-10-13T07:56:56.579Z,9.85
2022-10-13T08:02:00.465Z,10.12
2022-10-13T08:07:04.205Z,10.42
2022-10-13T08:12:06.284Z,10.58
2022-10-13T08:17:08.185Z,10.40
2022-10-13T08:22:11.469Z,10.79
2022-10-13T08:27:21.931Z,10.81
2022-10-13T08:32:24.513Z,11.02
2022-10-13T08:37:26.640Z,11.03
2022-10-13T08:42:28.616Z,11.36
2022-10-13T08:47:35.746Z,11.61
2022-10-13T08:53:00.608Z,11.74
2022-10-13T08:58:06.765Z,11.85
2022-10-13T09:03:22.800Z,12.12
2022-10-13T09:08:26.870Z,12.28
2022-10-13T09:13:30.214Z,12.47
2022-10-13T09:18:34.015Z,12.49
2022-10-13T09:23:39.519Z,12.72
2022-10-13T09:28:43.898Z,12.79
2022-10-13T09:33:46.923Z,12.90
2022-10-13T09:39:17.113Z,12.94
2022-10-13T09:44:31.317Z,13.17
2022-10-13T09:49:35.789Z,13.41
2022-10-13T09:54:42.009Z,13.50
2022-10-13T10:00:14.524Z,13.60
2022-10-13T10:05:37.689Z,13.71
2022-10-13T10:10:40.982Z,13.78
2022-10-13T10:15:58.266Z,13.97
2022-10-13T10:21:06.805Z,13.95
2022-10-13T10:26:19.412Z,14.09
2022-10-13T10:31:57.960Z,14.35
2022-10-13T10:37:08.821Z,14.25
2022-10-13T10:42:38.637Z,14.64
2022-10-13T10:47:43.456Z,14.74
2022-10-13T10:53:09.205Z,14.94
2022-10-13T10:58:20.576Z,14.78
2022-10-13T11:03:34.504Z,14.89
2022-10-13T11:08:48.073Z,15.08
2022-10-13T11:13:54.382Z,15.02
2022-10-13T11:19:05.830Z,15.07
2022-10-13T11:24:33.710Z,15.28
2022-10-13T11:29:45.613Z,15.32
2022-10-13T11:35:06.786Z,15.52
2022-10-13T11:40:39.699Z,15.72
2022-10-13T11:45:53.644Z,15.60
2022-10-13T11:51:16.427Z,15.75
2022-10-13T11:56:34.672Z,15.89
2022-10-13T12:01:44.219Z,15.69
2022-10-13T12:06:58.297Z,15.91
2022-10-13T12:12:20.597Z,16.10
2022-10-13T12:17:27.681Z,15.60
2022-10-13T12:22:30.116Z,16.06
2022-10-13T12:27:47.648Z,16.22
2022-10-13T12:32:52.029Z,16.08
2022-10-13T12:37:55.640Z,16.13
2022-10-13T12:42:57.489Z,16.21
2022-10-13T12:47:59.732Z,16.02
2022-10-13T12:53:18.659Z,16.03
2022-10-13T12:58:24.536Z,15.84
2022-10-13T13:03:29.139Z,15.86
2022-10-13T13:08:32.077Z,16.13
2022-10-13T13:13:34.781Z,15.92
2022-10-13T13:18:42.618Z,16.05
2022-10-13T13:23:52.778Z,16.00
2022-10-13T13:28:57.129Z,15.98
2022-10-13T13:33:59.016Z,16.11
2022-10-13T13:39:00.916Z,16.11
2022-10-13T13:44:03.283Z,15.92
2022-10-13T13:49:06.284Z,16.17
2022-10-13T13:54:08.293Z,15.97
2022-10-13T13:59:10.162Z,16.12
2022-10-13T14:04:12.040Z,15.93
2022-10-13T14:09:13.933Z,16.07
2022-10-13T14:14:15.941Z,15.90
2022-10-13T14:19:24.302Z,16.04
2022-10-13T14:24:33.322Z,15.90
2022-10-13T14:29:36.997Z,15.98
2022-10-13T14:34:38.871Z,15.85
2022-10-13T14:39:40.749Z,15.60
2022-10-13T14:44:42.600Z,15.51
2022-10-13T14:49:44.523Z,15.42
2022-10-13T14:54:46.536Z,15.34
2022-10-13T14:59:48.852Z,15.16
2022-10-13T15:04:50.813Z,15.00
2022-10-13T15:10:04.273Z,14.85
2022-10-13T15:15:08.210Z,14.67
2022-10-13T15:20:10.496Z,14.50
2022-10-13T15:25:12.555Z,14.33
2022-10-13T15:30:14.424Z,14.15
2022-10-13T15:35:16.369Z,13.90
2022-10-13T15:40:18.241Z,13.70
2022-10-13T15:45:20.128Z,13.44
2022-10-13T15:50:22.013Z,13.22
2022-10-13T15:55:24.040Z,13.04
2022-10-13T16:00:26.277Z,12.89
2022-10-13T16:05:28.429Z,12.69
2022-10-13T16:10:30.461Z,12.60
2022-10-13T16:15:32.378Z,12.57
2022-10-13T16:20:37.636Z,12.53
2022-10-13T16:25:39.952Z,12.49
2022-10-13T16:30:42.510Z,12.36
2022-10-13T16:35:47.679Z,12.21
2022-10-13T16:40:52.391Z,12.12
2022-10-13T16:46:00.514Z,12.00
2022-10-13T16:51:13.992Z,11.84
2022-10-13T16:56:21.172Z,11.71
2022-10-13T17:01:23.208Z,11.57
2022-10-13T17:06:27.945Z,11.51
2022-10-13T17:11:32.047Z,11.39
2022-10-13T17:16:34.468Z,11.27
2022-10-13T17:21:36.859Z,11.15
2022-10-13T17:26:40.562Z,11.09
2022-10-13T17:31:42.445Z,10.96
2022-10-13T17:36:44.347Z,10.90
2022-10-13T17:41:46.234Z,10.83
2022-10-13T17:46:49.976Z,10.85
2022-10-13T17:51:59.443Z,10.80
2022-10-13T17:57:08.377Z,10.69
2022-10-13T18:02:10.510Z,10.63
2022-10-13T18:07:12.609Z,10.55
2022-10-13T18:12:14.498Z,10.51
2022-10-13T18:17:16.518Z,10.41
2022-10-13T18:22:18.606Z,10.41
2022-10-13T18:27:20.715Z,10.36
2022-10-13T18:32:23.197Z,10.43
2022-10-13T18:37:25.091Z,10.39
2022-10-13T18:42:28.920Z,10.45
2022-10-13T18:47:30.690Z,10.44
2022-10-13T18:52:32.670Z,10.48
2022-10-13T18:57:35.253Z,10.45
2022-10-13T19:02:37.244Z,10.42
2022-10-13T19:07:39.313Z,10.41
2022-10-13T19:12:44.365Z,10.36
2022-10-13T19:17:46.286Z,10.35
2022-10-13T19:22:48.164Z,10.28
2022-10-13T19:27:50.235Z,10.23
2022-10-13T19:32:52.356Z,10.30
2022-10-13T19:37:54.316Z,10.20
2022-10-13T19:42:59.069Z,10.21
2022-10-13T19:48:00.952Z,10.15
2022-10-13T19:53:04.071Z,10.12
2022-10-13T19:58:06.586Z,10.14
2022-10-13T20:03:10.285Z,10.18
2022-10-13T20:08:14.083Z,10.08
2022-10-13T20:13:16.047Z,10.09
2022-10-13T20:18:18.006Z,10.08
2022-10-13T20:23:20.005Z,10.06
2022-10-13T20:28:21.948Z,10.00
2022-10-13T20:33:24.285Z,10.04
2022-10-13T20:38:26.898Z,9.94
2022-10-13T20:43:28.773Z,9.78
2022-10-13T20:48:51.494Z,9.70
2022-10-13T20:53:57.960Z,9.72
2022-10-13T20:59:08.602Z,9.74
2022-10-13T21:04:11.412Z,9.71
2022-10-13T21:09:13.228Z,9.68
2022-10-13T21:14:16.940Z,9.66
2022-10-13T21:19:19.088Z,9.65
2022-10-13T21:24:24.068Z,9.52
2022-10-13T21:29:25.957Z,9.46
2022-10-13T21:34:28.116Z,9.45
2022-10-13T21:39:30.053Z,9.40
2022-10-13T21:44:31.907Z,9.38
2022-10-13T21:49:33.888Z,9.32
2022-10-13T21:54:35.933Z,9.29
2022-10-13T21:59:37.968Z,9.25
2022-10-13T22:04:40.091Z,9.22
2022-10-13T22:09:42.038Z,9.15
2022-10-13T22:14:44.059Z,9.08
2022-10-13T22:19:46.116Z,9.03
2022-10-13T22:24:48.091Z,8.95
2022-10-13T22:29:51.818Z,8.90
2022-10-13T22:34:53.797Z,8.86
2022-10-13T22:39:55.895Z,8.86
2022-10-13T22:44:57.904Z,8.80
2022-10-13T22:50:06.245Z,8.79
2022-10-13T22:55:17.061Z,8.72
2022-10-13T23:00:19.236Z,8.66
2022-10-13T23:05:21.413Z,8.68
2022-10-13T23:10:23.950Z,8.77
2022-10-13T23:15:25.930Z,8.72
2022-10-13T23:20:28.149Z,8.62
2022-10-13T23:25:30.226Z,8.61
2022-10-13T23:30:32.237Z,8.64
2022-10-13T23:35:34.205Z,8.62
2022-10-13T23:40:36.461Z,8.73
2022-10-13T23:45:38.502Z,8.62
2022-10-13T23:50:42.621Z,8.68
2022-10-13T23:55:44.695Z,8.61
